Time;durP1;ratioP1;P1;durP2;ratioP2;P2;SDS_P1;SDS_P2;PMS_P1;PMS_P2;Temp;Humidity;BMP_temperature;BMP_pressure;BME280_temperature;BME280_humidity;BME280_pressure;Samples;Min_cycle;Max_cycle;Signal;HPM_P1;HPM_P2
2021/12/04 00:00:44;;;;;;;14.57;5.25;;;;;;;;;;5090382;28;20105;-64
2021/12/04 00:03:10;;;;;;;11.73;5.22;;;;;;;;;;5090382;28;20031;-64
2021/12/04 00:05:38;;;;;;;14.77;5.35;;;;;;;;;;5090513;28;20401;-64
2021/12/04 00:08:04;;;;;;;17.98;6.25;;;;;;;;;;5091021;28;20027;-64
2021/12/04 00:10:31;;;;;;;17.02;6.97;;;;;;;;;;5078219;28;20405;-64
2021/12/04 00:12:57;;;;;;;15.82;6.72;;;;;;;;;;5088560;28;20062;-65
2021/12/04 00:15:23;;;;;;;16.17;6.65;;;;;;;;;;5089425;28;20112;-64
2021/12/04 00:17:49;;;;;;;13.73;6.50;;;;;;;;;;5090154;28;20103;-64
2021/12/04 00:20:15;;;;;;;17.55;6.68;;;;;;;;;;5082809;28;20482;-64
2021/12/04 00:22:41;;;;;;;14.65;4.93;;;;;;;;;;5093250;28;20016;-64
2021/12/04 00:25:08;;;;;;;12.32;4.57;;;;;;;;;;5089417;28;20031;-64
2021/12/04 00:27:34;;;;;;;11.57;4.38;;;;;;;;;;5089861;28;20552;-65
2021/12/04 00:30:00;;;;;;;14.52;5.03;;;;;;;;;;5089453;28;20031;-65
2021/12/04 00:32:31;;;;;;;11.13;4.70;;;;;;;;;;5089678;28;20024;-64
2021/12/04 00:35:09;;;;;;;11.80;3.65;;;;;;;;;;5091674;28;20115;-65
2021/12/04 00:37:56;;;;;;;9.70;3.58;;;;;;;;;;5088775;28;20024;-64
2021/12/04 00:51:20;;;;;;;15.45;4.85;;;;;;;;;;5089511;28;20508;-65
2021/12/04 00:53:47;;;;;;;11.98;5.10;;;;;;;;;;5089409;28;20047;-64
2021/12/04 00:56:14;;;;;;;11.45;3.50;;;;;;;;;;5089173;28;20035;-65
2021/12/04 00:58:40;;;;;;;11.98;5.10;;;;;;;;;;5092410;28;20032;-63
2021/12/04 01:01:06;;;;;;;15.63;5.30;;;;;;;;;;5089909;28;20454;-64
2021/12/04 01:03:34;;;;;;;13.95;5.30;;;;;;;;;;5089216;28;20127;-64
2021/12/04 01:06:00;;;;;;;17.75;6.20;;;;;;;;;;5087979;28;20024;-64
2021/12/04 01:08:26;;;;;;;13.10;6.35;;;;;;;;;;5088629;28;20029;-64
2021/12/04 01:10:52;;;;;;;12.25;5.68;;;;;;;;;;5105892;28;20059;-64
2021/12/04 01:13:20;;;;;;;13.05;5.88;;;;;;;;;;5089708;28;20048;-64
2021/12/04 01:15:46;;;;;;;13.88;5.45;;;;;;;;;;5089031;28;20489;-64
2021/12/04 01:18:12;;;;;;;17.70;6.13;;;;;;;;;;5088349;28;20024;-64
2021/12/04 01:20:39;;;;;;;14.10;6.35;;;;;;;;;;5080706;28;20028;-64
2021/12/04 01:23:05;;;;;;;13.38;5.18;;;;;;;;;;5088610;28;20032;-64
2021/12/04 01:25:31;;;;;;;19.00;6.30;;;;;;;;;;5090708;28;20024;-64
2021/12/04 01:27:57;;;;;;;14.85;5.70;;;;;;;;;;5089002;28;20093;-64
2021/12/04 01:30:23;;;;;;;14.60;6.00;;;;;;;;;;5066003;28;20036;-64
2021/12/04 01:32:49;;;;;;;9.90;5.13;;;;;;;;;;5088033;28;20028;-64
2021/12/04 01:35:15;;;;;;;11.85;4.90;;;;;;;;;;5090389;28;20044;-64
2021/12/04 01:37:41;;;;;;;10.63;4.65;;;;;;;;;;5091796;28;20055;-64
2021/12/04 01:40:07;;;;;;;10.70;4.13;;;;;;;;;;5077212;28;20032;-64
2021/12/04 01:42:36;;;;;;;10.15;4.03;;;;;;;;;;5083882;28;20473;-64
2021/12/04 01:45:03;;;;;;;10.65;4.65;;;;;;;;;;5088186;28;20040;-64
2021/12/04 01:47:29;;;;;;;12.45;4.75;;;;;;;;;;5088580;28;20032;-64
2021/12/04 01:49:55;;;;;;;16.15;5.47;;;;;;;;;;5082762;28;20175;-64
2021/12/04 01:52:22;;;;;;;14.75;5.65;;;;;;;;;;5089525;28;20066;-64
2021/12/04 01:54:50;;;;;;;14.40;5.88;;;;;;;;;;5087387;28;20024;-64
2021/12/04 01:57:16;;;;;;;16.65;5.35;;;;;;;;;;5088478;28;20024;-63
2021/12/04 01:59:43;;;;;;;14.68;5.85;;;;;;;;;;5087479;28;20103;-64
2021/12/04 02:02:09;;;;;;;12.95;5.82;;;;;;;;;;5088467;28;20028;-64
2021/12/04 02:04:35;;;;;;;15.63;6.20;;;;;;;;;;5086317;28;20024;-64
2021/12/04 02:07:04;;;;;;;12.40;4.82;;;;;;;;;;5087673;28;20089;-64
2021/12/04 02:09:33;;;;;;;9.75;4.32;;;;;;;;;;5081152;28;20068;-64
2021/12/04 02:11:59;;;;;;;10.40;4.43;;;;;;;;;;5078527;28;20089;-64
2021/12/04 02:14:25;;;;;;;16.23;6.00;;;;;;;;;;5086826;28;20031;-64
2021/12/04 02:16:51;;;;;;;16.25;5.95;;;;;;;;;;5090167;28;20024;-63
2021/12/04 02:19:18;;;;;;;10.27;5.10;;;;;;;;;;5083808;28;20025;-64
2021/12/04 02:21:44;;;;;;;13.13;5.07;;;;;;;;;;5084596;28;20020;-64
2021/12/04 02:24:10;;;;;;;14.02;5.63;;;;;;;;;;5087288;28;20115;-64
2021/12/04 02:26:36;;;;;;;17.17;6.57;;;;;;;;;;5087871;28;20023;-64
2021/12/04 02:29:02;;;;;;;14.60;5.63;;;;;;;;;;5089139;28;20024;-64
2021/12/04 02:31:28;;;;;;;11.70;4.80;;;;;;;;;;5089919;28;20063;-64
2021/12/04 02:33:54;;;;;;;11.65;5.03;;;;;;;;;;5086926;28;20025;-64
2021/12/04 02:36:20;;;;;;;16.13;5.38;;;;;;;;;;5089486;28;20028;-64
2021/12/04 02:38:51;;;;;;;13.70;5.85;;;;;;;;;;5087564;28;20012;-64
2021/12/04 02:41:17;;;;;;;14.73;6.13;;;;;;;;;;5072728;28;20040;-64
2021/12/04 02:43:43;;;;;;;12.65;5.13;;;;;;;;;;5089841;28;20424;-64
2021/12/04 02:46:09;;;;;;;14.30;4.38;;;;;;;;;;5088348;28;20036;-63
2021/12/04 02:48:35;;;;;;;10.45;4.40;;;;;;;;;;5087204;28;20053;-64
2021/12/04 02:51:01;;;;;;;10.90;4.00;;;;;;;;;;5079735;28;20044;-64
2021/12/04 02:53:27;;;;;;;9.18;3.72;;;;;;;;;;5087386;28;20488;-64
2021/12/04 02:55:53;;;;;;;8.98;4.32;;;;;;;;;;5089607;28;20111;-64
2021/12/04 02:58:20;;;;;;;10.45;3.97;;;;;;;;;;5087685;28;20028;-64
2021/12/04 03:00:50;;;;;;;7.95;3.58;;;;;;;;;;5087520;28;20024;-64
2021/12/04 03:03:18;;;;;;;7.07;3.35;;;;;;;;;;5065011;28;20028;-64
2021/12/04 03:05:47;;;;;;;10.57;3.77;;;;;;;;;;5085811;28;20413;-64
2021/12/04 03:08:13;;;;;;;10.23;4.35;;;;;;;;;;5087515;28;20020;-64
2021/12/04 03:10:39;;;;;;;10.15;3.63;;;;;;;;;;5074932;28;20036;-64
2021/12/04 03:13:08;;;;;;;8.65;3.85;;;;;;;;;;5087526;28;20030;-64
2021/12/04 03:15:37;;;;;;;9.32;3.90;;;;;;;;;;5086833;28;20107;-64
2021/12/04 03:18:04;;;;;;;7.80;3.40;;;;;;;;;;5086974;28;20039;-64
2021/12/04 03:20:31;;;;;;;10.23;3.50;;;;;;;;;;5079157;28;20024;-64
2021/12/04 03:23:00;;;;;;;12.88;4.50;;;;;;;;;;5071066;28;20452;-64
2021/12/04 03:25:26;;;;;;;7.70;3.65;;;;;;;;;;5088952;28;20066;-64
2021/12/04 03:27:52;;;;;;;12.13;3.83;;;;;;;;;;5087120;28;20020;-64
2021/12/04 03:30:44;;;;;;;11.95;4.30;;;;;;;;;;5088931;28;20534;-64
2021/12/04 03:41:07;;;;;;;10.88;4.10;;;;;;;;;;5075814;28;20083;-64
2021/12/04 03:43:33;;;;;;;10.20;4.00;;;;;;;;;;5093184;28;20032;-64
2021/12/04 03:46:03;;;;;;;9.85;4.00;;;;;;;;;;5089516;28;20043;-64
2021/12/04 03:50:57;;;;;;;8.63;4.03;;;;;;;;;;5082352;28;20044;-64
2021/12/04 03:53:23;;;;;;;10.75;3.63;;;;;;;;;;5090309;28;20095;-64
2021/12/04 03:55:50;;;;;;;16.77;4.53;;;;;;;;;;5092646;28;20024;-64
2021/12/04 03:58:16;;;;;;;7.47;3.30;;;;;;;;;;5073540;28;20035;-64
2021/12/04 04:00:42;;;;;;;7.75;3.58;;;;;;;;;;5090187;28;20035;-64
2021/12/04 04:03:08;;;;;;;10.20;4.53;;;;;;;;;;5090219;28;20032;-64
2021/12/04 04:05:34;;;;;;;10.55;4.18;;;;;;;;;;5089944;28;20054;-64
2021/12/04 04:08:00;;;;;;;9.05;3.45;;;;;;;;;;5091968;28;20115;-64
2021/12/04 04:10:26;;;;;;;8.68;3.75;;;;;;;;;;5077913;28;20390;-64
2021/12/04 04:12:52;;;;;;;7.88;3.80;;;;;;;;;;5088577;28;20039;-64
2021/12/04 04:15:20;;;;;;;10.45;3.88;;;;;;;;;;5089574;28;20035;-64
2021/12/04 04:17:47;;;;;;;9.27;3.55;;;;;;;;;;5090179;28;20047;-64
2021/12/04 04:20:17;;;;;;;4.88;2.65;;;;;;;;;;5081785;28;20020;-64
2021/12/04 04:22:43;;;;;;;8.65;4.18;;;;;;;;;;5092482;28;20111;-64
2021/12/04 04:25:10;;;;;;;10.60;3.88;;;;;;;;;;5089783;28;20074;-64
2021/12/04 04:27:37;;;;;;;9.98;4.25;;;;;;;;;;5089756;28;20530;-64
2021/12/04 04:30:04;;;;;;;9.85;4.68;;;;;;;;;;5088937;28;20123;-64
2021/12/04 04:32:30;;;;;;;8.88;4.20;;;;;;;;;;5089959;28;20633;-64
2021/12/04 04:35:06;;;;;;;11.95;5.18;;;;;;;;;;5091748;28;20032;-64
2021/12/04 04:37:41;;;;;;;14.75;5.35;;;;;;;;;;5093173;28;20077;-64
2021/12/04 04:59:31;;;;;;;4.25;2.13;;;;;;;;;;5089737;28;20082;-64
2021/12/04 05:12:50;;;;;;;10.05;4.43;;;;;;;;;;5085487;28;20051;-64
2021/12/04 05:15:22;;;;;;;14.40;4.50;;;;;;;;;;5088517;28;20448;-64
2021/12/04 05:20:25;;;;;;;10.25;3.95;;;;;;;;;;5081168;28;20032;-64
2021/12/04 05:22:51;;;;;;;12.40;3.58;;;;;;;;;;5091178;28;20431;-64
2021/12/04 05:25:17;;;;;;;11.27;3.95;;;;;;;;;;5089856;28;20103;-64
2021/12/04 05:27:44;;;;;;;9.18;3.72;;;;;;;;;;5088839;28;20102;-62
2021/12/04 05:30:11;;;;;;;5.85;2.25;;;;;;;;;;5088504;28;20023;-62
2021/12/04 05:32:37;;;;;;;12.60;4.20;;;;;;;;;;5088260;28;20036;-62
2021/12/04 05:35:03;;;;;;;10.27;4.22;;;;;;;;;;5090419;28;20032;-63
2021/12/04 05:37:29;;;;;;;9.35;3.78;;;;;;;;;;5092104;28;20165;-63
2021/12/04 05:39:55;;;;;;;8.13;3.30;;;;;;;;;;5078989;28;20490;-62
2021/12/04 05:42:21;;;;;;;8.73;3.90;;;;;;;;;;5082058;28;20032;-61
2021/12/04 05:44:47;;;;;;;8.52;3.17;;;;;;;;;;5087978;28;20098;-61
2021/12/04 05:47:27;;;;;;;9.63;3.53;;;;;;;;;;5088210;28;20024;-63
2021/12/04 05:55:18;;;;;;;5.88;2.42;;;;;;;;;;5089908;28;20032;-64
2021/12/04 05:57:45;;;;;;;7.78;3.00;;;;;;;;;;5087701;28;20024;-63
2021/12/04 06:00:13;;;;;;;10.60;3.30;;;;;;;;;;5087932;28;20407;-62
2021/12/04 06:02:39;;;;;;;6.97;3.15;;;;;;;;;;5088406;28;20020;-61
2021/12/04 06:05:05;;;;;;;7.72;2.92;;;;;;;;;;5088964;28;20443;-61
2021/12/04 06:07:31;;;;;;;8.77;3.30;;;;;;;;;;5090484;28;20055;-59
2021/12/04 06:09:57;;;;;;;8.10;3.08;;;;;;;;;;5077723;28;20461;-60
2021/12/04 06:12:23;;;;;;;7.15;2.13;;;;;;;;;;5081486;28;20040;-66
2021/12/04 06:14:49;;;;;;;4.63;1.80;;;;;;;;;;5086972;28;20028;-63
2021/12/04 06:17:18;;;;;;;7.07;2.40;;;;;;;;;;5087141;28;20024;-61
2021/12/04 06:22:38;;;;;;;8.00;2.83;;;;;;;;;;5090445;28;20035;-64
2021/12/04 06:25:08;;;;;;;6.63;2.50;;;;;;;;;;5087576;28;20028;-62
2021/12/04 06:27:34;;;;;;;6.53;2.47;;;;;;;;;;5087843;28;20536;-61
2021/12/04 06:30:00;;;;;;;9.52;2.10;;;;;;;;;;5085861;28;20174;-62
2021/12/04 06:32:26;;;;;;;5.47;2.33;;;;;;;;;;5086991;28;20040;-63
2021/12/04 06:34:52;;;;;;;6.60;2.58;;;;;;;;;;5089569;28;20031;-62
2021/12/04 06:37:18;;;;;;;5.32;2.35;;;;;;;;;;5090549;28;20036;-64
2021/12/04 06:39:44;;;;;;;5.40;2.38;;;;;;;;;;5079068;28;20028;-65
2021/12/04 06:42:11;;;;;;;5.45;2.53;;;;;;;;;;5080221;28;20020;-63
2021/12/04 06:44:37;;;;;;;7.13;1.83;;;;;;;;;;5079923;28;20433;-60
2021/12/04 06:47:03;;;;;;;4.10;1.52;;;;;;;;;;5088318;28;20024;-67
2021/12/04 06:49:37;;;;;;;3.47;1.17;;;;;;;;;;5088795;28;20132;-62
2021/12/04 06:52:06;;;;;;;3.95;1.60;;;;;;;;;;5084884;28;20085;-61
2021/12/04 06:54:38;;;;;;;6.32;2.80;;;;;;;;;;5083580;28;20059;-60
2021/12/04 06:57:08;;;;;;;6.43;2.30;;;;;;;;;;5084190;28;20032;-61
2021/12/04 06:59:35;;;;;;;5.50;2.03;;;;;;;;;;5074423;28;20099;-60
2021/12/04 07:02:01;;;;;;;5.00;2.38;;;;;;;;;;5089478;28;20039;-61
2021/12/04 07:04:34;;;;;;;7.18;2.85;;;;;;;;;;5086972;28;20016;-61
2021/12/04 07:07:00;;;;;;;6.97;2.88;;;;;;;;;;5085912;28;20028;-61
2021/12/04 07:09:26;;;;;;;5.78;2.58;;;;;;;;;;5079534;28;20028;-60
2021/12/04 07:11:52;;;;;;;6.72;2.80;;;;;;;;;;5078817;28;20036;-61
2021/12/04 07:14:18;;;;;;;8.20;2.63;;;;;;;;;;5085912;28;20035;-62
2021/12/04 07:16:46;;;;;;;4.60;2.40;;;;;;;;;;5089030;28;20059;-63
2021/12/04 07:19:12;;;;;;;7.30;2.70;;;;;;;;;;5083414;28;20123;-60
2021/12/04 07:21:38;;;;;;;5.53;2.55;;;;;;;;;;5081307;28;20513;-60
2021/12/04 07:24:05;;;;;;;6.97;3.30;;;;;;;;;;5085999;28;20036;-61
2021/12/04 07:26:31;;;;;;;7.32;2.90;;;;;;;;;;5086111;28;20052;-60
2021/12/04 07:28:57;;;;;;;5.72;2.65;;;;;;;;;;5081697;28;20158;-60
2021/12/04 07:31:23;;;;;;;5.85;2.55;;;;;;;;;;5078891;28;20047;-60
2021/12/04 07:33:50;;;;;;;6.18;2.53;;;;;;;;;;5082905;28;20099;-60
2021/12/04 07:36:16;;;;;;;4.37;2.03;;;;;;;;;;5089477;28;20544;-60
2021/12/04 07:38:42;;;;;;;4.78;2.45;;;;;;;;;;5088713;28;20393;-62
2021/12/04 07:41:10;;;;;;;5.78;2.53;;;;;;;;;;5071195;28;20032;-61
2021/12/04 07:43:36;;;;;;;5.45;2.55;;;;;;;;;;5089433;28;20032;-62
2021/12/04 07:46:02;;;;;;;7.45;2.55;;;;;;;;;;5087169;28;20035;-61
2021/12/04 07:48:28;;;;;;;6.68;2.20;;;;;;;;;;5087076;28;20054;-60
2021/12/04 07:50:55;;;;;;;4.82;2.22;;;;;;;;;;5079147;28;20052;-58
2021/12/04 07:53:21;;;;;;;4.03;1.83;;;;;;;;;;5085852;28;20054;-59
2021/12/04 07:55:46;;;;;;;6.75;1.95;;;;;;;;;;5089293;28;20035;-58
2021/12/04 07:58:13;;;;;;;4.43;2.10;;;;;;;;;;5089188;28;20028;-58
2021/12/04 08:00:39;;;;;;;5.55;2.05;;;;;;;;;;5086564;28;20017;-60
2021/12/04 08:03:05;;;;;;;5.22;2.17;;;;;;;;;;5086379;28;20073;-59
2021/12/04 08:05:32;;;;;;;6.78;2.30;;;;;;;;;;5086122;28;20061;-61
2021/12/04 08:07:58;;;;;;;5.45;2.20;;;;;;;;;;5089061;28;20490;-61
2021/12/04 08:10:24;;;;;;;6.30;2.60;;;;;;;;;;5074601;28;20094;-60
2021/12/04 08:12:50;;;;;;;5.65;2.22;;;;;;;;;;5084425;28;20032;-60
2021/12/04 08:15:17;;;;;;;6.40;3.50;;;;;;;;;;5062805;28;20081;-60
2021/12/04 08:17:43;;;;;;;7.35;3.33;;;;;;;;;;5089697;28;20028;-60
2021/12/04 08:20:10;;;;;;;5.65;2.63;;;;;;;;;;5075062;28;20028;-60
2021/12/04 08:22:37;;;;;;;5.38;2.63;;;;;;;;;;5089274;28;20098;-60
2021/12/04 08:25:04;;;;;;;7.88;2.60;;;;;;;;;;5088366;28;20024;-60
2021/12/04 08:27:30;;;;;;;8.02;3.10;;;;;;;;;;5091642;28;20396;-60
2021/12/04 08:29:56;;;;;;;7.03;2.85;;;;;;;;;;5089769;28;20039;-60
2021/12/04 08:32:23;;;;;;;5.50;2.55;;;;;;;;;;5089443;28;20036;-60
2021/12/04 08:34:50;;;;;;;5.95;2.65;;;;;;;;;;5090454;28;20024;-61
2021/12/04 08:37:16;;;;;;;4.75;2.15;;;;;;;;;;5091215;28;20024;-60
2021/12/04 08:39:42;;;;;;;6.10;2.67;;;;;;;;;;5081045;28;20062;-61
2021/12/04 08:42:08;;;;;;;5.22;2.55;;;;;;;;;;5082321;28;20107;-61
2021/12/04 08:44:34;;;;;;;5.25;2.10;;;;;;;;;;5084980;28;20032;-61
2021/12/04 08:47:00;;;;;;;5.82;2.45;;;;;;;;;;5084567;28;20031;-60
2021/12/04 08:49:29;;;;;;;5.45;2.67;;;;;;;;;;5088508;28;20404;-60
2021/12/04 08:51:56;;;;;;;6.22;2.70;;;;;;;;;;5086174;28;20047;-60
2021/12/04 08:54:22;;;;;;;7.75;4.00;;;;;;;;;;5083600;28;20020;-60
2021/12/04 08:56:48;;;;;;;13.68;7.28;;;;;;;;;;5088900;28;20472;-61
2021/12/04 08:59:14;;;;;;;10.10;5.25;;;;;;;;;;5089648;28;20034;-60
2021/12/04 09:01:41;;;;;;;7.90;3.63;;;;;;;;;;5089942;28;20024;-61
2021/12/04 09:04:08;;;;;;;7.57;3.30;;;;;;;;;;5090101;28;20032;-60
2021/12/04 09:06:35;;;;;;;9.23;3.88;;;;;;;;;;5086652;28;20109;-61
2021/12/04 09:09:01;;;;;;;6.45;3.47;;;;;;;;;;5080653;28;20594;-61
2021/12/04 09:11:29;;;;;;;6.65;2.78;;;;;;;;;;5076118;28;20037;-61
2021/12/04 09:13:55;;;;;;;6.38;2.88;;;;;;;;;;5091633;28;20024;-61
2021/12/04 09:16:22;;;;;;;5.78;2.40;;;;;;;;;;5090712;28;20027;-61
2021/12/04 09:18:48;;;;;;;3.85;1.90;;;;;;;;;;5089252;28;20081;-61
2021/12/04 09:21:15;;;;;;;4.55;1.90;;;;;;;;;;5081802;28;20040;-60
2021/12/04 09:23:46;;;;;;;4.15;1.60;;;;;;;;;;5088584;28;20020;-60
2021/12/04 09:26:26;;;;;;;3.20;1.65;;;;;;;;;;5071938;28;20559;-60
2021/12/04 09:34:48;;;;;;;4.40;2.17;;;;;;;;;;5091073;28;20123;-60
2021/12/04 10:18:28;;;;;;;4.50;2.22;;;;;;;;;;5072915;28;20388;-61
2021/12/04 10:35:03;;;;;;;4.03;2.08;;;;;;;;;;5089055;28;20043;-61
2021/12/04 10:37:30;;;;;;;5.07;2.40;;;;;;;;;;5091567;28;20028;-60
2021/12/04 10:39:59;;;;;;;6.10;3.15;;;;;;;;;;5077686;28;20031;-59
2021/12/04 10:42:30;;;;;;;5.47;2.55;;;;;;;;;;5081349;28;20455;-60
2021/12/04 10:44:57;;;;;;;5.10;2.20;;;;;;;;;;5087982;28;20081;-60
2021/12/04 10:47:26;;;;;;;8.23;3.30;;;;;;;;;;5069741;28;20016;-63
2021/12/04 10:50:10;;;;;;;5.38;2.85;;;;;;;;;;5082002;28;20048;-59
2021/12/04 11:03:58;;;;;;;10.40;5.40;;;;;;;;;;5087419;28;20039;-62
2021/12/04 11:38:26;;;;;;;6.10;2.47;;;;;;;;;;5071763;28;20089;-61
2021/12/04 11:43:30;;;;;;;5.18;2.63;;;;;;;;;;5088551;28;20119;-62
2021/12/04 11:48:31;;;;;;;4.15;2.00;;;;;;;;;;5087123;28;20075;-62
2021/12/04 11:50:57;;;;;;;5.60;2.40;;;;;;;;;;5080815;28;20048;-62
2021/12/04 11:53:24;;;;;;;4.07;2.17;;;;;;;;;;5089856;28;20029;-62
2021/12/04 11:55:52;;;;;;;4.88;2.70;;;;;;;;;;5092939;28;20127;-62
2021/12/04 11:58:18;;;;;;;6.70;3.60;;;;;;;;;;5091919;28;20071;-63
2021/12/04 12:00:44;;;;;;;12.93;5.88;;;;;;;;;;5089579;28;20032;-64
2021/12/04 12:03:14;;;;;;;19.48;8.88;;;;;;;;;;5084338;28;20017;-65
2021/12/04 12:05:50;;;;;;;8.23;4.03;;;;;;;;;;5094785;28;20035;-62
2021/12/04 12:08:23;;;;;;;5.78;1.98;;;;;;;;;;5073598;28;20056;-63
2021/12/04 12:10:52;;;;;;;3.22;1.90;;;;;;;;;;5056502;28;20025;-62
2021/12/04 12:13:45;;;;;;;4.47;2.10;;;;;;;;;;5089711;28;20027;-63
2021/12/04 12:16:14;;;;;;;5.32;2.70;;;;;;;;;;5088706;28;20437;-64
2021/12/04 12:18:53;;;;;;;3.55;1.67;;;;;;;;;;5089147;28;20420;-63
2021/12/04 12:21:24;;;;;;;2.78;1.52;;;;;;;;;;5089049;28;20020;-61
2021/12/04 12:38:35;;;;;;;5.05;2.15;;;;;;;;;;5073340;28;20031;-63
2021/12/04 12:41:01;;;;;;;4.05;2.10;;;;;;;;;;5073371;28;20097;-62
2021/12/04 12:43:34;;;;;;;6.00;2.60;;;;;;;;;;5089823;28;20472;-62
2021/12/04 12:46:00;;;;;;;5.22;2.20;;;;;;;;;;5088211;28;20893;-62
2021/12/04 12:48:26;;;;;;;3.50;1.60;;;;;;;;;;5088365;28;20085;-63
2021/12/04 12:50:53;;;;;;;2.75;1.30;;;;;;;;;;5080315;28;20038;-63
2021/12/04 12:53:21;;;;;;;2.10;1.00;;;;;;;;;;5083967;28;20059;-63
2021/12/04 12:55:49;;;;;;;1.55;1.00;;;;;;;;;;5091117;28;20024;-63
2021/12/04 12:58:17;;;;;;;3.63;1.30;;;;;;;;;;5092454;28;20028;-63
2021/12/04 13:12:07;;;;;;;3.58;1.85;;;;;;;;;;5079215;28;20047;-63
2021/12/04 13:14:42;;;;;;;4.45;1.73;;;;;;;;;;5087953;28;20092;-63
2021/12/04 13:17:13;;;;;;;3.08;1.00;;;;;;;;;;5089790;28;20028;-63
2021/12/04 13:19:41;;;;;;;3.20;1.33;;;;;;;;;;5081447;28;20047;-63
2021/12/04 13:22:09;;;;;;;3.33;1.10;;;;;;;;;;5072327;28;20031;-63
2021/12/04 13:24:37;;;;;;;3.10;1.50;;;;;;;;;;5088678;28;20035;-63
2021/12/04 13:29:59;;;;;;;4.13;1.60;;;;;;;;;;5088862;28;20123;-63
2021/12/04 13:32:32;;;;;;;4.78;1.70;;;;;;;;;;5073593;28;20048;-64
2021/12/04 13:35:09;;;;;;;3.28;1.70;;;;;;;;;;5088453;28;20023;-63
2021/12/04 13:37:35;;;;;;;3.60;2.00;;;;;;;;;;5090054;28;20028;-63
2021/12/04 13:40:05;;;;;;;4.28;1.80;;;;;;;;;;5077834;28;20480;-63
2021/12/04 13:42:32;;;;;;;4.30;2.28;;;;;;;;;;5084290;28;20016;-63
2021/12/04 13:44:59;;;;;;;5.38;2.10;;;;;;;;;;5088181;28;20388;-60
2021/12/04 13:47:25;;;;;;;11.27;5.82;;;;;;;;;;5087972;28;20397;-61
2021/12/04 13:49:55;;;;;;;6.18;2.95;;;;;;;;;;5083646;28;20497;-63
2021/12/04 13:52:22;;;;;;;6.95;3.42;;;;;;;;;;5089313;28;20090;-61
2021/12/04 13:54:50;;;;;;;6.25;3.33;;;;;;;;;;5087951;28;20012;-61
2021/12/04 13:57:17;;;;;;;8.27;3.65;;;;;;;;;;5088896;28;20024;-61
2021/12/04 13:59:44;;;;;;;9.50;5.10;;;;;;;;;;5088571;28;20019;-61
2021/12/04 14:02:22;;;;;;;9.60;5.70;;;;;;;;;;5073166;28;20081;-61
2021/12/04 14:04:56;;;;;;;9.68;5.72;;;;;;;;;;5087663;28;20031;-60
2021/12/04 14:07:22;;;;;;;7.18;4.15;;;;;;;;;;5089602;28;20555;-61
2021/12/04 14:09:48;;;;;;;9.18;3.38;;;;;;;;;;5079889;28;20103;-61
2021/12/04 14:12:14;;;;;;;5.78;2.53;;;;;;;;;;5080783;28;20067;-61
2021/12/04 14:14:40;;;;;;;7.25;2.47;;;;;;;;;;5086638;28;20052;-61
2021/12/04 14:17:08;;;;;;;4.43;2.50;;;;;;;;;;5087526;28;20032;-63
2021/12/04 14:19:34;;;;;;;4.93;2.55;;;;;;;;;;5083896;28;20025;-61
2021/12/04 14:22:03;;;;;;;8.30;3.00;;;;;;;;;;5068171;28;20036;-61
2021/12/04 14:24:31;;;;;;;7.35;3.60;;;;;;;;;;5088012;28;20024;-62
2021/12/04 14:26:57;;;;;;;;;;;;;;;;;;5088442;28;20389;-61
2021/12/04 14:29:25;;;;;;;10.05;5.00;;;;;;;;;;5087716;28;19909;-60
2021/12/04 14:31:52;;;;;;;4.90;2.72;;;;;;;;;;5090019;28;20036;-61
2021/12/04 14:34:22;;;;;;;5.57;2.53;;;;;;;;;;5088935;28;20024;-62
2021/12/04 14:36:58;;;;;;;3.03;1.90;;;;;;;;;;5090081;28;20053;-61
2021/12/04 14:39:25;;;;;;;3.03;1.52;;;;;;;;;;5082832;28;20058;-60
2021/12/04 14:41:51;;;;;;;3.10;1.50;;;;;;;;;;5076985;28;20024;-61
2021/12/04 14:44:17;;;;;;;2.75;1.45;;;;;;;;;;5088261;28;20025;-61
2021/12/04 14:46:43;;;;;;;3.05;1.38;;;;;;;;;;5090580;28;20047;-62
2021/12/04 14:49:11;;;;;;;4.43;1.63;;;;;;;;;;5066703;28;20397;-61
2021/12/04 14:51:37;;;;;;;3.38;1.35;;;;;;;;;;5083494;28;20043;-61
2021/12/04 14:54:04;;;;;;;3.35;1.40;;;;;;;;;;5087281;28;20498;-61
2021/12/04 14:56:32;;;;;;;2.90;1.50;;;;;;;;;;5087507;28;20020;-61
2021/12/04 14:58:58;;;;;;;2.50;1.50;;;;;;;;;;5089438;28;20024;-61
2021/12/04 15:01:26;;;;;;;3.85;1.48;;;;;;;;;;5088973;28;20032;-60
2021/12/04 15:03:57;;;;;;;8.02;2.97;;;;;;;;;;5087724;28;20028;-61
2021/12/04 15:06:25;;;;;;;7.32;3.70;;;;;;;;;;5087008;28;20016;-60
2021/12/04 15:08:57;;;;;;;10.02;3.80;;;;;;;;;;5087170;28;20012;-61
2021/12/04 15:11:25;;;;;;;7.57;2.72;;;;;;;;;;5072891;28;20028;-61
2021/12/04 15:13:59;;;;;;;4.70;2.15;;;;;;;;;;5089461;28;20031;-61
2021/12/04 15:16:36;;;;;;;6.95;2.70;;;;;;;;;;5089322;28;20038;-61
2021/12/04 15:19:24;;;;;;;6.90;2.20;;;;;;;;;;5085053;28;20028;-61
2021/12/04 15:21:56;;;;;;;4.38;1.70;;;;;;;;;;5085292;28;20469;-60
2021/12/04 15:24:27;;;;;;;3.08;1.50;;;;;;;;;;5086961;28;20020;-60
2021/12/04 15:26:54;;;;;;;5.07;2.15;;;;;;;;;;5068982;28;20038;-61
2021/12/04 15:29:23;;;;;;;8.98;3.00;;;;;;;;;;5091255;28;20095;-61
2021/12/04 15:31:50;;;;;;;4.85;1.88;;;;;;;;;;5093281;28;20036;-61
2021/12/04 15:34:17;;;;;;;14.88;2.85;;;;;;;;;;5090706;28;20537;-61
2021/12/04 15:36:47;;;;;;;7.28;2.50;;;;;;;;;;5092466;28;20403;-61
2021/12/04 15:39:19;;;;;;;9.95;2.83;;;;;;;;;;5091624;28;20039;-62
2021/12/04 15:42:13;;;;;;;8.93;3.85;;;;;;;;;;5074729;28;20595;-61
2021/12/04 15:47:35;;;;;;;12.50;4.13;;;;;;;;;;5093036;28;20032;-63
2021/12/04 15:55:34;;;;;;;3.95;1.80;;;;;;;;;;5092793;28;20028;-61
2021/12/04 15:58:04;;;;;;;5.35;1.90;;;;;;;;;;5073561;28;20086;-60
2021/12/04 16:00:31;;;;;;;4.43;2.08;;;;;;;;;;5092797;28;20547;-66
2021/12/04 16:02:58;;;;;;;10.55;5.47;;;;;;;;;;5089984;28;20492;-62
2021/12/04 16:05:26;;;;;;;11.65;5.97;;;;;;;;;;5073896;28;20435;-62
2021/12/04 16:08:13;;;;;;;15.73;5.35;;;;;;;;;;5091820;28;20056;-61
2021/12/04 16:10:43;;;;;;;9.98;3.55;;;;;;;;;;5089879;28;20024;-62
2021/12/04 16:13:11;;;;;;;9.85;3.70;;;;;;;;;;5092759;28;20164;-62
2021/12/04 16:15:37;;;;;;;5.20;2.83;;;;;;;;;;5090694;28;20145;-61
2021/12/04 16:18:03;;;;;;;7.13;3.58;;;;;;;;;;5091744;28;20119;-61
2021/12/04 16:20:30;;;;;;;7.50;2.88;;;;;;;;;;5092300;28;20179;-62
2021/12/04 16:22:58;;;;;;;8.98;4.18;;;;;;;;;;5091181;28;20028;-62
2021/12/04 16:25:26;;;;;;;14.70;10.85;;;;;;;;;;5093240;28;20023;-62
2021/12/04 16:30:31;;;;;;;7.18;3.60;;;;;;;;;;5091703;28;20035;-62
2021/12/04 16:33:06;;;;;;;9.82;4.50;;;;;;;;;;5088910;28;20093;-62
2021/12/04 16:37:59;;;;;;;11.23;6.32;;;;;;;;;;5088985;28;20319;-62
2021/12/04 16:40:28;;;;;;;11.85;6.50;;;;;;;;;;5092537;28;20345;-61
2021/12/04 16:43:01;;;;;;;34.30;18.77;;;;;;;;;;5091397;28;20061;-61
2021/12/04 16:45:29;;;;;;;19.75;9.57;;;;;;;;;;5090902;28;20107;-62
2021/12/04 16:47:55;;;;;;;17.00;7.97;;;;;;;;;;5091450;28;20028;-61
2021/12/04 16:50:24;;;;;;;21.95;11.70;;;;;;;;;;5091726;28;20051;-62
2021/12/04 16:58:11;;;;;;;16.25;9.35;;;;;;;;;;5091435;28;20597;-61
2021/12/04 17:00:37;;;;;;;11.82;5.95;;;;;;;;;;5091142;28;20024;-63
2021/12/04 17:03:04;;;;;;;18.30;10.05;;;;;;;;;;5089098;28;20034;-63
2021/12/04 17:05:33;;;;;;;20.35;11.02;;;;;;;;;;5089658;28;20036;-63
2021/12/04 17:07:59;;;;;;;20.85;11.75;;;;;;;;;;5091275;28;20031;-63
2021/12/04 17:10:26;;;;;;;21.20;11.13;;;;;;;;;;5077459;28;20028;-63
2021/12/04 17:12:52;;;;;;;16.45;9.88;;;;;;;;;;5087373;28;20043;-62
2021/12/04 17:15:18;;;;;;;19.00;9.10;;;;;;;;;;5089417;28;20086;-63
2021/12/04 17:17:46;;;;;;;17.10;8.73;;;;;;;;;;5089443;28;20055;-62
2021/12/04 17:20:14;;;;;;;14.27;8.82;;;;;;;;;;5073463;28;20070;-63
2021/12/04 17:22:40;;;;;;;13.77;7.80;;;;;;;;;;5069955;28;20115;-62
2021/12/04 17:25:07;;;;;;;10.27;4.85;;;;;;;;;;5086498;28;20024;-62
2021/12/04 17:27:33;;;;;;;15.90;8.43;;;;;;;;;;5089237;28;20028;-63
2021/12/04 17:29:59;;;;;;;16.55;8.88;;;;;;;;;;5087732;28;20085;-62
2021/12/04 17:32:25;;;;;;;22.90;14.23;;;;;;;;;;5088853;28;20043;-63
2021/12/04 17:34:52;;;;;;;25.58;13.52;;;;;;;;;;5091308;28;20016;-63
2021/12/04 17:37:18;;;;;;;34.83;14.55;;;;;;;;;;5092121;28;20468;-62
2021/12/04 17:39:44;;;;;;;29.88;17.48;;;;;;;;;;5080418;28;20039;-60
2021/12/04 17:42:11;;;;;;;36.92;19.75;;;;;;;;;;5081107;28;20028;-61
2021/12/04 17:44:37;;;;;;;32.45;16.45;;;;;;;;;;5088932;28;20412;-60
2021/12/04 17:47:03;;;;;;;33.58;17.15;;;;;;;;;;5090206;28;20028;-62
2021/12/04 17:49:29;;;;;;;39.10;20.00;;;;;;;;;;5083967;28;20097;-64
2021/12/04 17:51:56;;;;;;;38.28;21.95;;;;;;;;;;5086782;28;20130;-64
2021/12/04 17:54:22;;;;;;;31.83;16.92;;;;;;;;;;5085891;28;20020;-65
2021/12/04 17:56:50;;;;;;;26.38;14.55;;;;;;;;;;5077792;28;20028;-62
2021/12/04 17:59:16;;;;;;;;;;;;;;;;;;5088908;28;20493;-62
2021/12/04 18:01:49;;;;;;;31.30;16.40;;;;;;;;;;5091264;28;19912;-62
2021/12/04 18:04:16;;;;;;;30.10;16.70;;;;;;;;;;5090512;28;20077;-62
2021/12/04 18:06:42;;;;;;;31.10;15.35;;;;;;;;;;5086281;28;20031;-63
2021/12/04 18:09:09;;;;;;;30.65;16.17;;;;;;;;;;5085531;28;20043;-60
2021/12/04 18:11:37;;;;;;;28.85;17.20;;;;;;;;;;5075962;28;20048;-59
2021/12/04 18:14:06;;;;;;;35.00;18.92;;;;;;;;;;5070552;28;20020;-62
2021/12/04 18:16:35;;;;;;;34.88;19.58;;;;;;;;;;5091126;28;20114;-61
2021/12/04 18:19:02;;;;;;;37.15;18.00;;;;;;;;;;5085910;28;20032;-62
2021/12/04 18:21:28;;;;;;;26.08;14.45;;;;;;;;;;5082871;28;20043;-62